createdAt,value
2022-10-22T00:02:24.616Z,46.26
2022-10-22T00:04:51.690Z,46.42
2022-10-22T00:07:19.333Z,45.94
2022-10-22T00:09:47.201Z,45.56
2022-10-22T00:12:16.033Z,46.16
2022-10-22T00:14:43.553Z,46.09
2022-10-22T00:17:11.487Z,46.05
2022-10-22T00:19:40.032Z,46.73
2022-10-22T00:22:08.758Z,47.05
2022-10-22T00:24:38.635Z,47.44
2022-10-22T00:27:06.847Z,47.94
2022-10-22T00:29:35.184Z,48.01
2022-10-22T00:32:02.550Z,47.80
2022-10-22T00:34:29.801Z,47.48
2022-10-22T00:36:57.862Z,47.57
2022-10-22T00:39:26.326Z,48.05
2022-10-22T00:41:54.636Z,48.09
2022-10-22T00:44:59.502Z,47.90
2022-10-22T00:47:29.123Z,47.83
2022-10-22T00:49:57.475Z,47.75
2022-10-22T00:52:25.236Z,47.76
2022-10-22T00:54:52.785Z,46.51
2022-10-22T00:57:21.445Z,47.00
2022-10-22T00:59:49.136Z,47.38
2022-10-22T01:02:16.995Z,47.33
2022-10-22T01:04:44.918Z,47.12
2022-10-22T01:07:21.503Z,47.58
2022-10-22T01:09:51.346Z,47.69
2022-10-22T01:13:07.024Z,47.24
2022-10-22T01:15:43.405Z,46.55
2022-10-22T01:18:29.429Z,46.98
2022-10-22T01:20:56.300Z,47.25
2022-10-22T01:23:53.060Z,46.71
2022-10-22T01:26:42.836Z,46.04
2022-10-22T01:29:34.438Z,46.83
2022-10-22T01:32:05.902Z,46.91
2022-10-22T01:34:34.648Z,46.97
2022-10-22T01:37:03.089Z,47.09
2022-10-22T01:39:31.676Z,46.61
2022-10-22T01:41:58.670Z,45.91
2022-10-22T01:44:31.891Z,46.12
2022-10-22T01:47:21.489Z,45.95
2022-10-22T01:50:14.429Z,46.58
2022-10-22T01:53:26.544Z,46.33
2022-10-22T01:56:15.227Z,46.51
2022-10-22T01:58:53.141Z,46.78
2022-10-22T02:01:32.388Z,47.06
2022-10-22T02:04:11.561Z,47.11
2022-10-22T02:06:41.268Z,46.86
2022-10-22T02:09:10.702Z,46.80
2022-10-22T02:11:38.879Z,46.92
2022-10-22T02:14:09.282Z,47.13
2022-10-22T02:16:42.219Z,46.92
2022-10-22T02:19:19.962Z,46.84
2022-10-22T02:21:47.150Z,45.97
2022-10-22T02:24:14.748Z,46.33
2022-10-22T02:27:12.197Z,46.21
2022-10-22T02:29:52.297Z,45.61
2022-10-22T02:32:24.889Z,45.30
2022-10-22T02:34:54.093Z,45.58
2022-10-22T02:37:22.882Z,46.06
2022-10-22T02:39:51.538Z,46.43
2022-10-22T02:42:18.629Z,46.27
2022-10-22T02:44:45.613Z,46.86
2022-10-22T02:47:12.698Z,46.83
2022-10-22T02:49:39.608Z,46.07
2022-10-22T02:52:06.703Z,46.28
2022-10-22T02:54:33.791Z,45.92
2022-10-22T02:57:00.705Z,46.35
2022-10-22T02:59:27.613Z,46.74
2022-10-22T03:01:54.558Z,46.99
2022-10-22T03:04:21.522Z,46.94
2022-10-22T03:06:49.286Z,46.50
2022-10-22T03:09:17.484Z,46.18
2022-10-22T03:11:47.244Z,46.01
2022-10-22T03:14:14.597Z,45.50
2022-10-22T03:16:41.753Z,44.94
2022-10-22T03:19:08.807Z,44.16
2022-10-22T03:21:41.598Z,45.48
2022-10-22T03:24:13.861Z,45.71
2022-10-22T03:26:42.244Z,45.59
2022-10-22T03:29:12.032Z,45.61
2022-10-22T03:31:39.012Z,45.41
2022-10-22T03:34:06.014Z,45.95
2022-10-22T03:36:33.518Z,45.94
2022-10-22T03:39:01.938Z,46.24
2022-10-22T03:41:29.359Z,46.03
2022-10-22T03:43:57.622Z,46.27
2022-10-22T03:46:24.606Z,46.45
2022-10-22T03:48:51.577Z,45.96
2022-10-22T03:51:18.631Z,46.34
2022-10-22T03:53:45.626Z,45.79
2022-10-22T03:56:13.282Z,45.90
2022-10-22T03:58:41.489Z,46.05
2022-10-22T04:01:10.938Z,45.85
2022-10-22T04:03:40.038Z,45.87
2022-10-22T04:06:09.516Z,46.12
2022-10-22T04:08:39.795Z,46.77
2022-10-22T04:11:07.201Z,47.01
2022-10-22T04:13:34.657Z,47.20
2022-10-22T04:16:20.111Z,47.18
2022-10-22T04:18:48.603Z,46.60
2022-10-22T04:21:19.285Z,46.69
2022-10-22T04:23:48.064Z,46.23
2022-10-22T04:26:15.686Z,46.19
2022-10-22T04:28:42.887Z,45.72
2022-10-22T04:31:15.648Z,45.68
2022-10-22T04:33:43.047Z,45.56
2022-10-22T04:36:12.881Z,44.47
2022-10-22T04:38:40.924Z,44.25
2022-10-22T04:41:16.995Z,44.03
2022-10-22T04:43:44.875Z,44.47
2022-10-22T04:46:13.293Z,45.25
2022-10-22T04:48:42.611Z,46.04
2022-10-22T04:51:12.899Z,45.78
2022-10-22T04:53:43.366Z,44.81
2022-10-22T04:56:36.653Z,44.63
2022-10-22T04:59:08.152Z,44.25
2022-10-22T05:01:41.666Z,44.21
2022-10-22T05:04:13.337Z,44.32
2022-10-22T05:06:40.429Z,44.00
2022-10-22T05:09:11.193Z,43.09
2022-10-22T05:11:41.767Z,43.74
2022-10-22T05:14:10.723Z,44.47
2022-10-22T05:16:40.803Z,44.87
2022-10-22T05:19:08.322Z,45.36
2022-10-22T05:21:37.637Z,45.71
2022-10-22T05:24:04.933Z,46.22
2022-10-22T05:26:31.869Z,46.62
2022-10-22T05:28:58.886Z,46.07
2022-10-22T05:31:26.286Z,46.23
2022-10-22T05:33:53.164Z,46.40
2022-10-22T05:36:22.445Z,46.60
2022-10-22T05:38:50.105Z,46.61
2022-10-22T05:41:20.519Z,47.05
2022-10-22T05:43:47.528Z,46.44
2022-10-22T05:46:22.004Z,47.06
2022-10-22T05:48:57.539Z,47.42
2022-10-22T05:51:25.798Z,47.16
2022-10-22T05:53:55.354Z,47.12
2022-10-22T05:56:23.505Z,46.44
2022-10-22T05:58:50.989Z,47.14
2022-10-22T06:01:19.230Z,45.54
2022-10-22T06:03:47.835Z,44.90
2022-10-22T06:06:26.235Z,46.62
2022-10-22T06:08:54.381Z,48.51
2022-10-22T06:11:23.307Z,49.47
2022-10-22T06:13:51.085Z,51.12
2022-10-22T06:16:18.360Z,51.43
2022-10-22T06:18:45.723Z,51.50
2022-10-22T06:21:14.510Z,49.60
2022-10-22T06:23:44.012Z,50.97
2022-10-22T06:26:11.688Z,49.41
2022-10-22T06:28:39.297Z,48.32
2022-10-22T06:31:07.017Z,48.55
2022-10-22T06:33:34.506Z,47.06
2022-10-22T06:36:09.244Z,47.30
2022-10-22T06:38:36.179Z,48.85
2022-10-22T06:41:05.452Z,49.40
2022-10-22T06:43:32.532Z,50.37
2022-10-22T06:46:04.566Z,49.98
2022-10-22T06:48:31.729Z,52.81
2022-10-22T06:51:06.175Z,47.49
2022-10-22T06:53:33.519Z,45.84
2022-10-22T06:56:05.914Z,47.32
2022-10-22T06:58:32.852Z,48.13
2022-10-22T07:01:05.222Z,49.12
2022-10-22T07:03:32.270Z,50.10
2022-10-22T07:06:01.459Z,49.47
2022-10-22T07:08:29.242Z,48.71
2022-10-22T07:10:56.814Z,48.16
2022-10-22T07:13:23.776Z,47.36
2022-10-22T07:15:55.146Z,47.27
2022-10-22T07:18:22.575Z,45.12
2022-10-22T07:20:49.783Z,45.89
2022-10-22T07:23:17.487Z,44.12
2022-10-22T07:25:44.538Z,43.79
2022-10-22T07:28:11.798Z,42.20
2022-10-22T07:30:40.293Z,42.46
2022-10-22T07:33:07.759Z,42.62
2022-10-22T07:35:35.133Z,41.30
2022-10-22T07:38:02.154Z,42.94
2022-10-22T07:40:29.142Z,43.17
2022-10-22T07:42:56.337Z,42.23
2022-10-22T07:45:23.454Z,41.25
2022-10-22T07:47:50.499Z,42.23
2022-10-22T07:50:18.446Z,42.87
2022-10-22T07:52:45.578Z,42.85
2022-10-22T07:55:13.611Z,39.13
2022-10-22T07:57:40.993Z,39.86
2022-10-22T08:00:09.598Z,38.70
2022-10-22T08:02:39.768Z,37.67
2022-10-22T08:05:07.735Z,38.31
2022-10-22T08:07:34.780Z,36.27
2022-10-22T08:10:02.014Z,36.23
2022-10-22T08:12:29.374Z,38.60
2022-10-22T08:14:56.500Z,38.59
2022-10-22T08:17:23.481Z,37.66
2022-10-22T08:19:50.562Z,36.32
2022-10-22T08:22:17.564Z,36.06
2022-10-22T08:24:44.668Z,35.01
2022-10-22T08:27:11.678Z,37.42
2022-10-22T08:29:38.975Z,38.63
2022-10-22T08:32:06.000Z,37.54
2022-10-22T08:34:33.053Z,37.41
2022-10-22T08:37:00.140Z,37.86
2022-10-22T08:39:27.351Z,36.94
2022-10-22T08:42:31.864Z,36.62
2022-10-22T08:45:25.350Z,35.94
2022-10-22T08:48:04.440Z,36.42
2022-10-22T08:50:38.909Z,36.65
2022-10-22T08:53:15.898Z,35.91
2022-10-22T08:55:44.624Z,35.98
2022-10-22T08:58:32.364Z,35.75
2022-10-22T09:01:02.798Z,35.19
2022-10-22T09:03:38.663Z,35.70
2022-10-22T09:06:16.013Z,34.81
2022-10-22T09:08:45.126Z,34.03
2022-10-22T09:11:23.072Z,33.71
2022-10-22T09:13:51.392Z,32.91
2022-10-22T09:16:59.915Z,32.67
2022-10-22T09:19:35.873Z,28.77
2022-10-22T09:22:30.469Z,29.19
2022-10-22T09:25:26.009Z,25.92
2022-10-22T09:27:58.309Z,25.19
2022-10-22T09:30:29.978Z,27.90
2022-10-22T09:33:08.174Z,27.96
2022-10-22T09:35:46.822Z,27.59
2022-10-22T09:38:16.202Z,27.28
2022-10-22T09:40:53.568Z,26.71
2022-10-22T09:43:21.302Z,28.30
2022-10-22T09:46:01.804Z,26.30
2022-10-22T09:48:42.066Z,26.79
2022-10-22T09:51:23.162Z,27.91
2022-10-22T09:53:58.795Z,27.19
2022-10-22T09:56:28.806Z,26.88
2022-10-22T09:58:58.069Z,26.29
2022-10-22T10:01:34.100Z,26.00
2022-10-22T10:04:10.180Z,26.25
2022-10-22T10:06:40.487Z,24.81
2022-10-22T10:09:16.638Z,26.14
2022-10-22T10:11:46.956Z,26.16
2022-10-22T10:14:21.722Z,27.26
2022-10-22T10:17:04.849Z,26.21
2022-10-22T10:19:50.184Z,26.03
2022-10-22T10:22:52.616Z,26.09
2022-10-22T10:25:32.991Z,25.39
2022-10-22T10:28:21.032Z,26.21
2022-10-22T10:31:21.768Z,25.54
2022-10-22T10:34:13.423Z,24.46
2022-10-22T10:36:45.453Z,26.59
2022-10-22T10:39:30.442Z,27.08
2022-10-22T10:42:06.865Z,25.12
2022-10-22T10:44:45.783Z,25.54
2022-10-22T10:47:29.030Z,24.44
2022-10-22T10:50:19.883Z,24.20
2022-10-22T10:53:07.716Z,25.58
2022-10-22T10:55:42.465Z,24.90
2022-10-22T10:58:39.325Z,22.87
2022-10-22T11:01:27.361Z,24.14
2022-10-22T11:04:32.076Z,25.56
2022-10-22T11:07:11.536Z,24.92
2022-10-22T11:09:51.199Z,24.61
2022-10-22T11:12:29.065Z,25.00
2022-10-22T11:15:18.079Z,23.28
2022-10-22T11:17:48.985Z,25.31
2022-10-22T11:20:22.597Z,24.91
2022-10-22T11:23:18.826Z,25.09
2022-10-22T11:25:51.355Z,23.85
2022-10-22T11:28:26.052Z,26.04
2022-10-22T11:31:03.315Z,25.62
2022-10-22T11:34:04.675Z,24.36
2022-10-22T11:36:38.345Z,24.88
2022-10-22T11:39:05.620Z,25.83
2022-10-22T11:41:34.653Z,26.94
2022-10-22T11:44:07.685Z,26.77
2022-10-22T11:46:46.217Z,25.70
2022-10-22T11:49:13.192Z,27.28
2022-10-22T11:51:43.098Z,28.43
2022-10-22T11:54:30.241Z,25.29
2022-10-22T11:57:46.567Z,26.63
2022-10-22T12:00:46.314Z,25.28
2022-10-22T12:03:39.960Z,27.48
2022-10-22T12:06:12.922Z,25.79
2022-10-22T12:08:49.069Z,26.32
2022-10-22T12:11:37.938Z,26.06
2022-10-22T12:14:19.560Z,26.51
2022-10-22T12:16:57.439Z,27.16
2022-10-22T12:19:36.138Z,27.86
2022-10-22T12:22:27.080Z,27.95
2022-10-22T12:24:57.369Z,27.80
2022-10-22T12:27:34.899Z,27.74
2022-10-22T12:30:11.100Z,25.39
2022-10-22T12:32:41.507Z,28.04
2022-10-22T12:35:20.645Z,27.65
2022-10-22T12:38:13.629Z,28.44
2022-10-22T12:40:45.825Z,28.94
2022-10-22T12:43:24.260Z,28.29
2022-10-22T12:45:52.173Z,28.53
2022-10-22T12:48:29.358Z,29.25
2022-10-22T12:50:59.796Z,28.71
2022-10-22T12:53:37.950Z,28.55
2022-10-22T12:56:10.608Z,29.22
2022-10-22T12:58:47.480Z,30.26
2022-10-22T13:01:17.435Z,29.89
2022-10-22T13:03:50.867Z,29.33
2022-10-22T13:06:20.996Z,29.74
2022-10-22T13:09:00.475Z,29.74
2022-10-22T13:11:40.169Z,29.41
2022-10-22T13:14:26.376Z,29.21
2022-10-22T13:17:10.519Z,28.69
2022-10-22T13:20:01.927Z,30.19
2022-10-22T13:22:37.991Z,29.52
2022-10-22T13:25:20.000Z,29.77
2022-10-22T13:27:49.843Z,30.26
2022-10-22T13:30:26.620Z,29.23
2022-10-22T13:33:06.057Z,30.79
2022-10-22T13:35:37.473Z,31.06
2022-10-22T13:38:18.529Z,31.17
2022-10-22T13:40:46.235Z,30.66
2022-10-22T13:43:13.186Z,30.41
2022-10-22T13:45:40.647Z,30.87
2022-10-22T13:48:15.001Z,30.98
2022-10-22T13:50:42.038Z,30.58
2022-10-22T13:53:22.279Z,30.83
2022-10-22T13:55:50.399Z,31.15
2022-10-22T13:58:20.278Z,31.65
2022-10-22T14:00:59.118Z,32.13
2022-10-22T14:03:34.656Z,32.11
2022-10-22T14:06:01.809Z,32.42
2022-10-22T14:08:28.923Z,32.40
2022-10-22T14:10:56.317Z,31.73
2022-10-22T14:13:26.731Z,32.28
2022-10-22T14:15:53.906Z,32.15
2022-10-22T14:18:26.511Z,32.06
2022-10-22T14:20:56.966Z,32.47
2022-10-22T14:23:27.526Z,31.97
2022-10-22T14:25:55.596Z,32.39
2022-10-22T14:28:22.775Z,32.41
2022-10-22T14:30:50.477Z,32.23
2022-10-22T14:33:21.302Z,33.24
2022-10-22T14:35:49.276Z,32.63
2022-10-22T14:38:17.898Z,33.21
2022-10-22T14:40:45.670Z,33.68
2022-10-22T14:43:38.197Z,33.59
2022-10-22T14:46:05.319Z,33.98
2022-10-22T14:48:32.368Z,34.12
2022-10-22T14:50:59.378Z,34.08
2022-10-22T14:53:26.307Z,34.31
2022-10-22T14:55:55.634Z,34.13
2022-10-22T14:58:22.666Z,34.37
2022-10-22T15:00:49.719Z,34.69
2022-10-22T15:03:16.850Z,35.03
2022-10-22T15:05:44.991Z,34.68
2022-10-22T15:08:13.666Z,34.93
2022-10-22T15:10:40.946Z,35.33
2022-10-22T15:13:08.191Z,35.56
2022-10-22T15:15:39.644Z,35.62
2022-10-22T15:18:07.238Z,36.09
2022-10-22T15:20:34.280Z,36.35
2022-10-22T15:23:01.285Z,36.39
2022-10-22T15:25:28.895Z,36.37
2022-10-22T15:28:00.677Z,36.40
2022-10-22T15:30:31.900Z,36.57
2022-10-22T15:32:58.830Z,37.21
2022-10-22T15:35:28.930Z,37.16
2022-10-22T15:37:55.967Z,37.19
2022-10-22T15:40:22.979Z,37.18
2022-10-22T15:42:50.998Z,37.50
2022-10-22T15:45:18.385Z,37.34
2022-10-22T15:47:47.630Z,37.37
2022-10-22T15:50:15.205Z,37.10
2022-10-22T15:52:42.100Z,37.13
2022-10-22T15:55:10.756Z,37.00
2022-10-22T15:57:39.199Z,37.49
2022-10-22T16:00:08.165Z,37.90
2022-10-22T16:02:41.972Z,37.42
2022-10-22T16:05:09.490Z,37.45
2022-10-22T16:07:39.771Z,37.75
2022-10-22T16:10:08.008Z,37.79
2022-10-22T16:12:36.146Z,38.39
2022-10-22T16:15:03.251Z,38.55
2022-10-22T16:17:30.343Z,38.58
2022-10-22T16:19:57.298Z,38.47
2022-10-22T16:22:24.488Z,38.82
2022-10-22T16:24:51.416Z,38.67
2022-10-22T16:27:18.438Z,38.85
2022-10-22T16:29:45.435Z,39.10
2022-10-22T16:32:13.393Z,38.88
2022-10-22T16:34:42.096Z,39.02
2022-10-22T16:37:10.480Z,38.95
2022-10-22T16:39:37.900Z,38.96
2022-10-22T16:42:05.301Z,38.71
2022-10-22T16:44:32.286Z,38.91
2022-10-22T16:46:59.368Z,38.92
2022-10-22T16:49:26.729Z,38.97
2022-10-22T16:51:53.675Z,38.52
2022-10-22T16:57:02.681Z,39.16
2022-10-22T16:59:29.597Z,38.84
2022-10-22T17:01:57.507Z,39.00
2022-10-22T17:04:24.518Z,38.74
2022-10-22T17:06:51.559Z,39.28
2022-10-22T17:09:18.715Z,39.41
2022-10-22T17:11:45.685Z,39.73
2022-10-22T17:14:13.891Z,39.61
2022-10-22T17:16:41.073Z,40.06
2022-10-22T17:19:08.322Z,39.85
2022-10-22T17:21:35.327Z,40.31
2022-10-22T17:24:18.629Z,40.78
2022-10-22T17:27:10.874Z,40.96
2022-10-22T17:29:37.960Z,40.99
2022-10-22T17:32:05.161Z,41.08
2022-10-22T17:34:33.402Z,40.95
2022-10-22T17:37:29.094Z,41.27
2022-10-22T17:39:55.944Z,41.06
2022-10-22T17:42:22.854Z,41.57
2022-10-22T17:44:50.016Z,41.55
2022-10-22T17:47:17.022Z,41.75
2022-10-22T17:49:44.108Z,41.76
2022-10-22T17:52:13.839Z,41.58
2022-10-22T17:54:42.102Z,41.53
2022-10-22T17:57:09.767Z,41.59
2022-10-22T17:59:36.817Z,41.86
2022-10-22T18:02:04.170Z,41.79
2022-10-22T18:04:32.262Z,42.16
2022-10-22T18:06:59.725Z,42.41
2022-10-22T18:09:27.007Z,42.17
2022-10-22T18:11:54.947Z,42.18
2022-10-22T18:19:39.504Z,42.52
2022-10-22T18:22:08.042Z,42.75
2022-10-22T18:24:36.831Z,43.06
2022-10-22T18:27:04.150Z,42.90
2022-10-22T18:29:31.194Z,43.07
2022-10-22T18:31:58.125Z,43.37
2022-10-22T18:34:25.138Z,43.24
2022-10-22T18:36:52.250Z,43.07
2022-10-22T18:39:19.692Z,43.28
2022-10-22T18:41:46.708Z,43.20
2022-10-22T18:44:15.406Z,43.08
2022-10-22T18:46:42.953Z,43.03
2022-10-22T18:49:16.527Z,43.30
2022-10-22T18:51:43.453Z,43.63
2022-10-22T18:54:22.702Z,43.63
2022-10-22T18:56:50.551Z,43.83
2022-10-22T18:59:23.235Z,43.40
2022-10-22T19:01:52.715Z,43.77
2022-10-22T19:04:20.052Z,43.91
2022-10-22T19:06:47.251Z,44.15
2022-10-22T19:09:15.669Z,44.04
2022-10-22T19:11:44.360Z,44.30
2022-10-22T19:14:11.353Z,43.92
2022-10-22T19:16:38.853Z,43.63
2022-10-22T19:19:07.423Z,43.68
2022-10-22T19:21:36.645Z,43.82
2022-10-22T19:24:06.468Z,43.77
2022-10-22T19:26:33.720Z,43.84
2022-10-22T19:29:00.814Z,43.79
2022-10-22T19:31:30.188Z,44.01
2022-10-22T19:33:58.848Z,44.25
2022-10-22T19:36:30.391Z,44.39
2022-10-22T19:38:57.643Z,44.12
2022-10-22T19:41:26.922Z,43.74
2022-10-22T19:43:54.875Z,44.19
2022-10-22T19:46:23.091Z,44.69
2022-10-22T19:48:51.537Z,44.64
2022-10-22T19:51:21.692Z,44.37
2022-10-22T19:53:49.625Z,44.31
2022-10-22T19:56:20.037Z,45.08
2022-10-22T19:58:47.894Z,44.74
2022-10-22T20:01:17.072Z,44.93
2022-10-22T20:03:44.298Z,45.46
2022-10-22T20:06:13.969Z,45.65
2022-10-22T20:08:41.445Z,45.87
2022-10-22T20:11:15.402Z,45.64
2022-10-22T20:13:43.627Z,46.14
2022-10-22T20:16:15.903Z,46.04
2022-10-22T20:18:43.038Z,46.41
2022-10-22T20:21:13.960Z,46.35
2022-10-22T20:23:42.168Z,46.23
2022-10-22T20:26:09.852Z,46.29
2022-10-22T20:28:38.392Z,46.04
2022-10-22T20:31:17.676Z,45.76
2022-10-22T20:33:44.814Z,45.82
2022-10-22T20:36:21.194Z,45.83
2022-10-22T20:38:48.658Z,46.16
2022-10-22T20:41:19.501Z,46.34
2022-10-22T20:43:48.165Z,46.06
2022-10-22T20:46:29.532Z,46.62
2022-10-22T20:49:06.312Z,46.85
2022-10-22T20:51:34.986Z,46.53
2022-10-22T20:54:02.169Z,46.64
2022-10-22T20:56:29.432Z,46.29
2022-10-22T20:59:04.599Z,46.28
2022-10-22T21:01:53.024Z,46.12
2022-10-22T21:04:21.559Z,46.43
2022-10-22T21:06:50.370Z,46.51
2022-10-22T21:09:17.498Z,47.41
2022-10-22T21:11:44.594Z,47.20
2022-10-22T21:14:13.801Z,47.16
2022-10-22T21:16:46.592Z,46.75
2022-10-22T21:19:13.589Z,47.59
2022-10-22T21:21:41.007Z,47.58
2022-10-22T21:24:08.063Z,47.05
2022-10-22T21:26:39.611Z,47.39
2022-10-22T21:29:07.048Z,47.62
2022-10-22T21:31:34.200Z,47.40
2022-10-22T21:34:01.248Z,47.72
2022-10-22T21:36:28.241Z,47.85
2022-10-22T21:38:55.496Z,47.83
2022-10-22T21:41:23.970Z,47.90
2022-10-22T21:43:56.214Z,47.73
2022-10-22T21:46:25.818Z,47.95
2022-10-22T21:48:54.748Z,47.68
2022-10-22T21:51:23.412Z,47.69
2022-10-22T21:56:36.348Z,47.35
2022-10-22T21:59:21.870Z,47.34
2022-10-22T22:01:49.013Z,47.09
2022-10-22T22:04:15.956Z,47.01
2022-10-22T22:06:54.107Z,47.01
2022-10-22T22:09:21.973Z,46.93
2022-10-22T22:11:49.096Z,47.14
2022-10-22T22:14:16.168Z,47.29
2022-10-22T22:16:43.044Z,47.30
2022-10-22T22:19:10.695Z,47.20
2022-10-22T22:21:39.868Z,47.11
2022-10-22T22:24:08.367Z,47.26
2022-10-22T22:26:35.396Z,47.18
2022-10-22T22:29:02.606Z,47.23
2022-10-22T22:31:32.239Z,47.25
2022-10-22T22:34:05.802Z,47.04
2022-10-22T22:36:35.475Z,46.94
2022-10-22T22:39:07.155Z,47.03
2022-10-22T22:41:34.552Z,47.04
2022-10-22T22:44:01.875Z,46.96
2022-10-22T22:46:29.089Z,47.02
2022-10-22T22:48:56.302Z,47.09
2022-10-22T22:51:23.770Z,46.93
2022-10-22T22:53:51.400Z,47.19
2022-10-22T22:56:22.643Z,47.25
2022-10-22T22:58:50.200Z,47.21
2022-10-22T23:01:20.839Z,47.52
2022-10-22T23:03:54.408Z,47.39
2022-10-22T23:06:21.392Z,47.49
2022-10-22T23:08:50.509Z,47.68
2022-10-22T23:11:18.190Z,47.80
2022-10-22T23:13:45.813Z,47.84
2022-10-22T23:16:19.116Z,48.07
2022-10-22T23:18:47.988Z,48.11
2022-10-22T23:21:26.947Z,47.86
2022-10-22T23:23:58.443Z,48.06
2022-10-22T23:26:29.437Z,48.46
2022-10-22T23:29:01.672Z,48.19
2022-10-22T23:31:28.744Z,48.14
2022-10-22T23:33:55.718Z,47.91
2022-10-22T23:36:22.812Z,49.00
2022-10-22T23:38:50.975Z,48.52
2022-10-22T23:44:24.949Z,48.47
2022-10-22T23:46:52.311Z,48.11
2022-10-22T23:49:19.453Z,48.02
2022-10-22T23:51:46.600Z,48.44
2022-10-22T23:54:16.006Z,48.26
2022-10-22T23:56:43.079Z,48.29
2022-10-22T23:59:10.672Z,48.47
